Cooperstown, North Dakota
Current Conditions -  °F | °C
As of 10:55 PM on Saturday 20 Dec 2014 (Local Time) from KBAC Reporting Station
Haze Haze  
Wind Chill: 14°   Ceiling: 300
Heat Index: 27°   Visibility: 3mi
Dew Point: 27°   Wind: 16mph
Humidity: 100%   Direction: 200°SSW
Pressure: 29.83"   Gusts: NA
Location:  47.44°N, 98.12°W
Report Text: KBAC 210455Z AUTO 20014KT 3SM BR OVC003 M03/M03 A2983 RMK AO2
Loading
Personal Weather Stations






























Interactive Weather Map New forecast layout! Learn more

10-Day Weather Forecast

Advertisements
Track Severe Weather on mobile